createdAt,value
2023-03-23T15:58:21.026Z,1.70
2023-03-23T16:00:50.609Z,1.90
2023-03-23T16:03:20.524Z,1.80
2023-03-23T16:05:49.054Z,1.77
2023-03-23T16:08:16.979Z,2.07
2023-03-23T16:10:45.034Z,1.70
2023-03-23T16:13:14.019Z,1.87
2023-03-23T16:15:42.213Z,1.73
2023-03-23T16:18:16.100Z,1.90
2023-03-23T16:20:44.173Z,1.90
2023-03-23T16:23:11.878Z,2.73
2023-03-23T16:25:39.946Z,1.60
2023-03-23T16:28:07.874Z,1.80
2023-03-23T16:30:37.002Z,2.40
2023-03-23T16:33:04.972Z,1.73
2023-03-23T16:35:32.851Z,1.53
2023-03-23T16:38:07.970Z,1.57
2023-03-23T16:40:36.739Z,2.40
2023-03-23T16:43:08.882Z,2.87
2023-03-23T16:45:42.400Z,2.00
2023-03-23T16:48:14.179Z,2.03
2023-03-23T16:50:42.268Z,2.10
2023-03-23T16:53:10.731Z,1.97
2023-03-23T16:55:38.906Z,4.67
2023-03-23T17:00:40.568Z,2.73
2023-03-23T17:03:08.574Z,2.20
2023-03-23T17:05:37.116Z,2.50
2023-03-23T17:08:06.023Z,2.40
2023-03-23T17:10:34.163Z,3.00
2023-03-23T17:13:02.108Z,2.60
2023-03-23T17:15:30.076Z,2.37
2023-03-23T17:17:59.175Z,3.53
2023-03-23T17:20:27.092Z,2.70
2023-03-23T17:22:54.852Z,3.40
2023-03-23T17:25:22.516Z,3.30
2023-03-23T17:27:51.808Z,2.50
2023-03-23T17:30:19.834Z,3.07
2023-03-23T17:32:48.678Z,3.10
2023-03-23T17:35:17.944Z,3.80
2023-03-23T17:37:45.917Z,3.90
2023-03-23T17:40:14.521Z,3.70
2023-03-23T17:42:42.369Z,3.83
2023-03-23T17:45:10.897Z,3.30
2023-03-23T17:47:39.505Z,4.40
2023-03-23T17:50:11.291Z,3.90
2023-03-23T17:52:46.327Z,4.37
2023-03-23T17:55:14.071Z,3.97
2023-03-23T17:57:42.826Z,3.53
2023-03-23T18:00:12.416Z,4.10
2023-03-23T18:02:40.250Z,4.57
2023-03-23T18:05:09.453Z,4.63
2023-03-23T18:07:41.004Z,5.10
2023-03-23T18:10:12.446Z,4.57
2023-03-23T18:12:40.894Z,4.00
2023-03-23T18:15:09.518Z,4.80
2023-03-23T18:17:37.370Z,6.10
2023-03-23T18:20:05.838Z,5.57
2023-03-23T18:22:35.116Z,4.93
2023-03-23T18:25:05.353Z,5.80
2023-03-23T18:27:35.620Z,4.87
2023-03-23T18:30:03.770Z,6.23
2023-03-23T18:32:32.314Z,6.80
2023-03-23T18:34:59.983Z,6.67
2023-03-23T18:37:51.016Z,4.80
2023-03-23T18:40:21.618Z,6.93
2023-03-23T18:42:49.291Z,5.53
2023-03-23T18:45:17.278Z,6.23
2023-03-23T18:47:45.796Z,5.47
2023-03-23T18:50:13.546Z,6.27
2023-03-23T18:52:42.294Z,5.40
2023-03-23T18:55:10.511Z,7.60
2023-03-23T18:57:41.017Z,5.53
2023-03-23T19:00:09.972Z,6.57
2023-03-23T19:02:39.572Z,6.43
2023-03-23T19:05:08.001Z,6.77
2023-03-23T19:07:35.972Z,9.00
2023-03-23T19:10:05.524Z,11.63
2023-03-23T19:12:33.204Z,6.77
2023-03-23T19:15:02.342Z,6.40
2023-03-23T19:17:30.288Z,5.47
2023-03-23T19:19:58.186Z,5.80
2023-03-23T19:22:25.920Z,7.07
2023-03-23T19:24:53.664Z,6.70
2023-03-23T19:27:21.966Z,4.63
2023-03-23T19:29:49.623Z,4.53
2023-03-23T19:32:18.950Z,4.87
2023-03-23T19:34:51.122Z,5.00
2023-03-23T19:37:19.237Z,5.00
2023-03-23T19:39:47.059Z,5.20
2023-03-23T19:42:18.064Z,5.30
2023-03-23T19:44:47.625Z,5.13
2023-03-23T19:47:16.044Z,4.67
2023-03-23T19:49:45.895Z,5.00
2023-03-23T19:52:15.070Z,6.23
2023-03-23T19:54:46.089Z,5.57
2023-03-23T19:57:14.442Z,5.20
2023-03-23T19:59:42.615Z,7.57
2023-03-23T20:02:11.960Z,8.30
2023-03-23T20:04:40.399Z,8.27
2023-03-23T20:07:09.925Z,8.57
2023-03-23T20:09:38.477Z,18.10
2023-03-23T20:12:06.931Z,16.87
2023-03-23T20:14:34.987Z,10.63
2023-03-23T20:17:03.095Z,9.87
2023-03-23T20:19:34.596Z,10.87
2023-03-23T20:22:04.492Z,10.40
2023-03-23T20:24:33.844Z,10.20
2023-03-23T20:27:03.750Z,9.03
2023-03-23T20:29:33.613Z,8.10
2023-03-23T20:32:01.471Z,8.17
2023-03-23T20:34:32.374Z,9.07
2023-03-23T20:37:01.731Z,7.70
2023-03-23T20:39:31.213Z,9.43
2023-03-23T20:42:02.977Z,8.70
2023-03-23T20:44:35.965Z,8.23
2023-03-23T20:47:04.698Z,9.43
2023-03-23T20:49:34.618Z,8.50
2023-03-23T20:52:02.874Z,8.83
2023-03-23T20:54:31.258Z,9.33
2023-03-23T20:57:01.224Z,9.33
2023-03-23T20:59:29.361Z,9.53
2023-03-23T21:01:57.678Z,7.87
2023-03-23T21:04:27.347Z,9.07
2023-03-23T21:06:55.783Z,8.10
2023-03-23T21:09:24.654Z,6.90
2023-03-23T21:11:52.870Z,8.77
2023-03-23T21:14:22.205Z,7.73
2023-03-23T21:16:51.464Z,8.90
2023-03-23T21:19:20.546Z,7.77
2023-03-23T21:21:56.428Z,8.30
2023-03-23T21:24:26.590Z,7.67
2023-03-23T21:26:54.892Z,7.90
2023-03-23T21:29:24.378Z,8.90
2023-03-23T21:32:07.045Z,7.50
2023-03-23T21:34:36.663Z,8.40
2023-03-23T21:37:04.412Z,8.47
2023-03-23T21:39:32.216Z,8.30
2023-03-23T21:42:01.718Z,7.53
2023-03-23T21:44:35.082Z,7.70
2023-03-23T21:47:03.253Z,8.67
2023-03-23T21:49:31.447Z,8.10
2023-03-23T21:51:59.853Z,7.70
2023-03-23T21:54:29.962Z,7.53
2023-03-23T21:56:58.829Z,8.13
2023-03-23T21:59:27.287Z,8.10
2023-03-23T22:02:02.138Z,8.30
2023-03-23T22:07:19.315Z,8.10
2023-03-23T22:09:47.202Z,8.60
2023-03-23T22:12:15.545Z,8.70
2023-03-23T22:14:43.562Z,7.57
2023-03-23T22:17:13.270Z,9.03
2023-03-23T22:19:41.250Z,18.30
2023-03-23T22:22:09.057Z,9.30
2023-03-23T22:24:37.421Z,11.40
2023-03-23T22:27:05.363Z,10.07
2023-03-23T22:29:33.342Z,8.87
2023-03-23T22:32:01.557Z,10.03
2023-03-23T22:34:32.458Z,8.47
2023-03-23T22:37:00.398Z,9.30
2023-03-23T22:39:28.787Z,9.07
2023-03-23T22:41:56.897Z,7.83
2023-03-23T22:44:25.407Z,8.00
2023-03-23T22:46:53.252Z,9.33
2023-03-23T22:49:21.674Z,7.50
2023-03-23T22:51:50.999Z,8.07
2023-03-23T22:54:19.365Z,8.10
2023-03-23T22:56:47.356Z,8.53
2023-03-23T22:59:15.308Z,8.17
2023-03-23T23:01:43.440Z,7.27
2023-03-23T23:04:11.706Z,9.73
2023-03-23T23:06:39.946Z,8.97
2023-03-23T23:09:09.500Z,8.80
2023-03-23T23:11:37.909Z,7.40
2023-03-23T23:14:06.557Z,8.50
2023-03-23T23:16:34.455Z,8.17
2023-03-23T23:19:02.645Z,7.90
2023-03-23T23:21:30.490Z,6.80
2023-03-23T23:23:58.844Z,7.20
2023-03-23T23:26:28.078Z,6.50
2023-03-23T23:28:56.635Z,7.40
2023-03-23T23:31:27.029Z,7.50
2023-03-23T23:33:56.086Z,6.60
2023-03-23T23:36:27.880Z,6.60
2023-03-23T23:38:56.884Z,5.90
2023-03-23T23:41:24.850Z,6.10
2023-03-23T23:43:54.456Z,5.80
2023-03-23T23:46:22.885Z,5.70
2023-03-23T23:48:51.179Z,5.60
2023-03-23T23:51:19.038Z,5.73
2023-03-23T23:53:55.684Z,5.77
2023-03-23T23:56:23.656Z,6.00
2023-03-23T23:58:51.836Z,6.27
